Flight Track Log - Related Links

Times and Time Zones

All times are in EDT time to prevent confusion due to time zone crossing. See the N5139E flight status page for this flight to view local times or setup timezone preferences in your user account.

Time Position Orientation Groundspeed Altitude Reporting Facility
EDT Latitude Longitude Course Direction KTS MPH feet Rate Location/Type
Sat 02:18:31 PM 43.1072 -76.0153 175° South 71 82 2,800  Level Boston Center
Sat 02:19:32 PM 43.0889 -76.0000 149° Southeast 86 99 3,500 694 Climbing Boston Center
Sat 02:20:32 PM 43.0678 -76.0072 194° South 83 96 4,200 595 Climbing Boston Center
Sat 02:21:33 PM 43.0447 -76.0144 193° South 82 94 4,700 492 Climbing Boston Center
Sat 02:22:34 PM 43.0219 -76.0103 172° South 80 92 5,200 496 Climbing Boston Center
Sat 02:23:34 PM 42.9992 -76.0033 167° South 82 94 5,700 350 Climbing Boston Center
Sat 02:24:00 PM 42.9238 -76.0797 175° South  Level Estimated
Sat 02:24:34 PM 42.9719 -76.0072 186° South 104 120 5,900  Level Boston Center
Sat 02:25:35 PM 42.9428 -76.0028 174° South 113 130 5,800  Descending Boston Center
Sat 02:26:38 PM 42.9114 -76.0039 181° South 109 125 5,900 95 Climbing Boston Center
Sat 02:28:00 PM 42.8685 -76.0024 175° South  Level Estimated
Sat 02:35:00 PM 42.6487 -76.0113 182° South  Level FlightAware
Sat 02:36:00 PM 42.6173 -76.0126 182° South  Level FlightAware
Sat 02:37:00 PM 42.5859 -76.0139 182° South  Level FlightAware
Sat 02:38:00 PM 42.5546 -76.0151 182° South  Level FlightAware
Sat 02:39:00 PM 42.5232 -76.0164 182° South  Level FlightAware
Sat 02:40:00 PM 42.4871 -76.0117 173° South  Level FlightAware
Sat 02:41:00 PM 42.4559 -76.0065 173° South  Level FlightAware
Sat 02:42:00 PM 42.4248 -76.0013 173° South  Level FlightAware
Sat 02:43:00 PM 42.3936 -75.9954 172° South  Level FlightAware
Sat 02:44:00 PM 42.3626 -75.9892 172° South  Level FlightAware
Sat 02:45:00 PM 42.3315 -75.9833 180° South  Level FlightAware
Sat 02:46:00 PM 42.3001 -75.9833 180° South  Level FlightAware
Sat 02:47:00 PM 42.2690 -75.9771 172° South  Level FlightAware
Sat 02:48:00 PM 42.2379 -75.9709 172° South  Level FlightAware
Sat 02:49:00 PM 42.2068 -75.9667 180° South  Level FlightAware
Sat 02:50:00 PM 42.2000 -75.9667 180° South  Level FlightAware
Sat 02:51:00 PM 42.2084 -75.9796 180° South  Level Estimated
Sat 02:52:00 PM 42.2084 -75.9796 180° South  Level Estimated
Sat 02:53:00 PM 42.2084 -75.9796 180° South  Level Estimated
Sat 02:54:00 PM 42.2084 -75.9796 180° South  Level Estimated
Sat 02:55:00 PM 42.2084 -75.9796 180° South  Level Estimated
Sat 02:56:00 PM 42.2084 -75.9796 180° South  Level Estimated
Sat 02:57:00 PM 42.2084 -75.9796 180° South  Level Estimated
Sat 02:58:00 PM 42.2084 -75.9796 180° South  Level Estimated
Sat 02:59:00 PM 42.2084 -75.9796 180° South  Level Estimated

Login

Don't have an account? Register now (free) for customized features, flight alerts, and more!